Terminal Aerodrome Forecast
Issued by NWS

Home | Current Version | Previous Version | Graphics & Text | Print | Product List | Glossary On
Versions: 1 2 3 4 5 6 7 8 9 10 11 12 13 14 15 16 17 18 19 20 21
000
FTUS43 KGRB 222134 AAA
TAFRHI
TAF AMD
KRHI 222134Z 2222/2318 20011G19KT 5SM -TSRA BKN050CB BKN080
     FM222300 20009G17KT P6SM VCSH SCT050 BKN080
     FM230200 20009KT P6SM VCSH BKN080 BKN200 WS013/21035KT
     FM230900 20006KT P6SM SCT080 BKN200 WS013/21035KT
     FM231600 19011G17KT P6SM FEW100 SCT200=

USA.gov is the U.S. government's official web portal to all federal, state and local government web resources and services.